South Chittenden, Vermont
Current Conditions -  °F | °C
As of 11:15 PM on Wednesday 26 Nov 2014 (Local Time) from KRUT Reporting Station
Overcast Overcast  
Wind Chill: 17°   Ceiling: 500
Heat Index: 27°   Visibility: 1.7mi
Dew Point: 25°   Wind: 9mph
Humidity: 93%   Direction: 340°NNW
Pressure: 29.86"   Gusts: NA
Location:  43.6369°N, 72.9375°W
Report Text: KRUT 270415Z 34008KT 1 3/4SM OVC005 M03/M04 A2986 RMK AO1
Loading
Personal Weather Stations






























Interactive Weather Map New forecast layout! Learn more

10-Day Weather Forecast

Advertisements
Track Severe Weather on mobile